Bejou, Minnesota
Current Conditions -  °F | °C
As of 4:55 PM on Monday 24 Nov 2014 (Local Time) from K3N8 Reporting Station
Clear Clear  
Wind Chill: -20°   Ceiling: Unl
Heat Index: -12°   Visibility: 10mi
Dew Point: -14°   Wind: 12mph
Humidity: 84%   Direction: 330°NNW
Pressure: 29.85"   Gusts: NA
Location:  47.44°N, 95.98°W
Report Text: K3N8 242255Z AUTO 33010KT 10SM CLR M12/M14 A2985 RMK AO2 T11181140
Loading
Personal Weather Stations






























Interactive Weather Map New forecast layout! Learn more

10-Day Weather Forecast

Advertisements
Track Severe Weather on mobile